createdAt,value
2023-04-08T00:00:55.796Z,100798.89
2023-04-08T00:03:25.103Z,100795.20
2023-04-08T00:05:53.995Z,100798.02
2023-04-08T00:08:24.514Z,100798.17
2023-04-08T00:10:52.999Z,100793.93
2023-04-08T00:13:21.680Z,100795.17
2023-04-08T00:15:49.957Z,100795.52
2023-04-08T00:18:18.672Z,100790.24
2023-04-08T00:20:47.326Z,100788.81
2023-04-08T00:23:15.908Z,100783.29
2023-04-08T00:25:44.391Z,100782.52
2023-04-08T00:28:14.953Z,100786.68
2023-04-08T00:30:43.773Z,100783.79
2023-04-08T00:33:12.308Z,100786.73
2023-04-08T00:35:42.057Z,100786.34
2023-04-08T00:38:10.714Z,100790.54
2023-04-08T00:40:39.678Z,100784.20
2023-04-08T00:43:08.465Z,100781.74
2023-04-08T00:45:42.273Z,100782.29
2023-04-08T00:48:11.268Z,100777.52
2023-04-08T00:50:39.807Z,100781.56
2023-04-08T00:53:28.221Z,100786.16
2023-04-08T00:55:57.010Z,100781.38
2023-04-08T00:58:26.083Z,100779.80
2023-04-08T01:01:22.750Z,100779.98
2023-04-08T01:03:58.749Z,100777.66
2023-04-08T01:06:31.967Z,100777.33
2023-04-08T01:09:00.356Z,100780.83
2023-04-08T01:11:28.522Z,100781.55
2023-04-08T01:13:57.108Z,100785.16
2023-04-08T01:16:29.119Z,100788.17
2023-04-08T01:18:57.472Z,100789.09
2023-04-08T01:21:25.827Z,100789.45
2023-04-08T01:24:10.185Z,100786.80
2023-04-08T01:26:38.653Z,100789.59
2023-04-08T01:29:07.155Z,100790.23
2023-04-08T01:31:35.938Z,100791.95
2023-04-08T01:34:05.032Z,100798.46
2023-04-08T01:36:33.408Z,100797.76
2023-04-08T01:39:02.189Z,100795.20
2023-04-08T01:41:30.668Z,100802.31
2023-04-08T01:44:04.581Z,100799.70
2023-04-08T01:46:34.002Z,100800.89
2023-04-08T01:49:04.105Z,100799.95
2023-04-08T01:51:36.672Z,100802.18
2023-04-08T01:54:06.127Z,100800.06
2023-04-08T01:56:36.754Z,100804.81
2023-04-08T01:59:07.239Z,100804.96
2023-04-08T02:01:35.804Z,100807.09
2023-04-08T02:04:05.051Z,100805.51
2023-04-08T02:06:34.218Z,100808.17
2023-04-08T02:09:03.133Z,100809.98
2023-04-08T02:11:31.897Z,100805.58
2023-04-08T02:14:00.690Z,100806.76
2023-04-08T02:16:48.643Z,100811.80
2023-04-08T02:19:29.805Z,100806.35
2023-04-08T02:22:00.023Z,100803.02
2023-04-08T02:24:28.773Z,100806.20
2023-04-08T02:26:57.296Z,100808.16
2023-04-08T02:29:26.387Z,100806.38
2023-04-08T02:32:01.802Z,100806.56
2023-04-08T02:34:31.238Z,100809.76
2023-04-08T02:36:59.608Z,100804.87
2023-04-08T02:39:32.911Z,100806.83
2023-04-08T02:42:01.309Z,100808.60
2023-04-08T02:44:29.665Z,100808.60
2023-04-08T02:47:01.420Z,100810.35
2023-04-08T02:49:30.825Z,100811.93
2023-04-08T02:52:06.164Z,100813.58
2023-04-08T02:54:37.037Z,100812.94
2023-04-08T02:57:05.683Z,100816.81
2023-04-08T02:59:41.455Z,100816.46
2023-04-08T03:02:10.666Z,100819.81
2023-04-08T03:04:39.315Z,100818.42
2023-04-08T03:07:08.748Z,100818.77
2023-04-08T03:09:44.799Z,100821.90
2023-04-08T03:12:14.495Z,100820.83
2023-04-08T03:14:42.782Z,100824.04
2023-04-08T03:17:11.342Z,100826.17
2023-04-08T03:19:40.134Z,100831.47
2023-04-08T03:22:10.004Z,100835.87
2023-04-08T03:24:39.251Z,100835.16
2023-04-08T03:27:08.681Z,100838.84
2023-04-08T03:29:37.037Z,100837.91
2023-04-08T03:32:06.547Z,100840.91
2023-04-08T03:34:35.829Z,100844.80
2023-04-08T03:37:04.229Z,100842.17
2023-04-08T03:39:33.512Z,100845.70
2023-04-08T03:42:03.320Z,100849.92
2023-04-08T03:44:31.724Z,100849.67
2023-04-08T03:47:00.298Z,100845.76
2023-04-08T03:49:28.864Z,100848.84
2023-04-08T03:51:57.246Z,100845.25
2023-04-08T03:54:25.722Z,100849.09
2023-04-08T03:56:54.305Z,100847.78
2023-04-08T03:59:23.717Z,100851.58
2023-04-08T04:01:53.976Z,100856.84
2023-04-08T04:04:22.564Z,100857.21
2023-04-08T04:06:52.222Z,100862.45
2023-04-08T04:09:21.384Z,100860.64
2023-04-08T04:11:49.800Z,100861.80
2023-04-08T04:14:19.103Z,100859.46
2023-04-08T04:16:47.779Z,100866.14
2023-04-08T04:19:18.001Z,100866.86
2023-04-08T04:21:51.805Z,100861.53
2023-04-08T04:24:20.496Z,100861.70
2023-04-08T04:26:49.075Z,100867.67
2023-04-08T04:29:17.457Z,100860.81
2023-04-08T04:31:47.171Z,100867.73
2023-04-08T04:34:18.106Z,100873.41
2023-04-08T04:36:46.892Z,100870.70
2023-04-08T04:39:16.500Z,100867.33
2023-04-08T04:41:46.212Z,100868.85
2023-04-08T04:44:15.354Z,100861.77
2023-04-08T04:46:43.721Z,100862.04
2023-04-08T04:49:12.570Z,100866.30
2023-04-08T04:51:41.184Z,100870.95
2023-04-08T04:54:09.643Z,100865.73
2023-04-08T04:56:40.928Z,100868.59
2023-04-08T04:59:16.694Z,100871.95
2023-04-08T05:01:45.783Z,100873.90
2023-04-08T05:04:14.243Z,100870.65
2023-04-08T05:06:42.718Z,100873.80
2023-04-08T05:09:11.789Z,100870.42
2023-04-08T05:11:40.168Z,100871.30
2023-04-08T05:14:13.874Z,100871.84
2023-04-08T05:16:43.790Z,100879.30
2023-04-08T05:19:12.267Z,100887.09
2023-04-08T05:21:40.754Z,100881.41
2023-04-08T05:24:09.128Z,100883.32
2023-04-08T05:26:37.946Z,100888.25
2023-04-08T05:29:08.107Z,100888.40
2023-04-08T05:31:38.996Z,100886.61
2023-04-08T05:34:07.455Z,100892.20
2023-04-08T05:36:35.936Z,100890.14
2023-04-08T05:39:06.261Z,100892.34
2023-04-08T05:41:38.017Z,100890.77
2023-04-08T05:44:06.609Z,100897.14
2023-04-08T05:46:36.283Z,100900.47
2023-04-08T05:49:04.896Z,100899.14
2023-04-08T05:51:36.347Z,100903.98
2023-04-08T05:54:04.927Z,100901.27
2023-04-08T05:56:37.411Z,100903.23
2023-04-08T05:59:06.605Z,100908.61
2023-04-08T06:01:35.065Z,100912.05
2023-04-08T06:04:03.777Z,100916.41
2023-04-08T06:06:32.649Z,100918.81
2023-04-08T06:09:01.007Z,100923.66
2023-04-08T06:11:34.932Z,100926.94
2023-04-08T06:14:03.639Z,100924.80
2023-04-08T06:16:32.513Z,100931.83
2023-04-08T06:19:01.568Z,100924.21
2023-04-08T06:21:30.565Z,100923.70
2023-04-08T06:23:59.078Z,100918.25
2023-04-08T06:26:28.236Z,100911.27
2023-04-08T06:28:56.481Z,100906.75
2023-04-08T06:31:25.319Z,100907.85
2023-04-08T06:33:56.280Z,100900.92
2023-04-08T06:36:26.090Z,100905.76
2023-04-08T06:38:55.385Z,100907.67
2023-04-08T06:41:23.976Z,100906.86
2023-04-08T06:43:52.349Z,100910.48
2023-04-08T06:46:21.166Z,100910.65
2023-04-08T06:48:49.753Z,100908.60
2023-04-08T06:51:19.397Z,100910.51
2023-04-08T06:53:48.531Z,100914.04
2023-04-08T06:56:17.052Z,100911.95
2023-04-08T06:58:46.512Z,100914.82
2023-04-08T07:01:16.728Z,100914.86
2023-04-08T07:03:45.478Z,100918.27
2023-04-08T07:06:14.442Z,100919.16
2023-04-08T07:08:43.818Z,100927.48
2023-04-08T07:11:16.242Z,100926.81
2023-04-08T07:13:44.571Z,100924.59
2023-04-08T07:16:15.710Z,100928.48
2023-04-08T07:18:48.383Z,100924.26
2023-04-08T07:21:17.183Z,100922.96
2023-04-08T07:23:46.582Z,100926.52
2023-04-08T07:26:15.064Z,100929.34
2023-04-08T07:28:48.923Z,100929.67
2023-04-08T07:31:18.212Z,100931.77
2023-04-08T07:33:46.724Z,100935.93
2023-04-08T07:36:18.711Z,100938.91
2023-04-08T07:38:47.633Z,100942.27
2023-04-08T07:41:19.587Z,100944.58
2023-04-08T07:43:47.957Z,100942.85
2023-04-08T07:46:16.445Z,100950.73
2023-04-08T07:48:45.351Z,100948.58
2023-04-08T07:51:15.039Z,100955.82
2023-04-08T07:53:43.401Z,100955.18
2023-04-08T07:56:15.365Z,100954.10
2023-04-08T07:58:43.881Z,100960.13
2023-04-08T08:01:20.328Z,100965.69
2023-04-08T08:03:51.280Z,100967.42
2023-04-08T08:06:20.063Z,100971.73
2023-04-08T08:08:48.545Z,100974.18
2023-04-08T08:11:17.002Z,100975.07
2023-04-08T08:13:53.473Z,100972.98
2023-04-08T08:16:28.245Z,100972.71
2023-04-08T08:18:56.780Z,100973.64
2023-04-08T08:21:27.514Z,100974.42
2023-04-08T08:23:57.145Z,100976.15
2023-04-08T08:26:25.703Z,100972.67
2023-04-08T08:28:58.592Z,100977.63
2023-04-08T08:31:27.531Z,100977.05
2023-04-08T08:33:56.285Z,100982.58
2023-04-08T08:36:28.949Z,100986.20
2023-04-08T08:38:57.532Z,100987.56
2023-04-08T08:41:26.058Z,100997.85
2023-04-08T08:43:54.497Z,100998.14
2023-04-08T08:46:23.110Z,100993.28
2023-04-08T08:48:51.633Z,100992.54
2023-04-08T08:51:20.168Z,100985.21
2023-04-08T08:53:51.312Z,100983.06
2023-04-08T08:56:20.269Z,100988.65
2023-04-08T08:58:49.371Z,100984.53
2023-04-08T09:01:44.211Z,100979.98
2023-04-08T09:04:23.264Z,100985.61
2023-04-08T09:07:11.371Z,100992.80
2023-04-08T09:09:58.453Z,100985.80
2023-04-08T09:12:31.649Z,100985.66
2023-04-08T09:15:05.146Z,100988.02
2023-04-08T09:17:34.487Z,100991.64
2023-04-08T09:20:12.478Z,100991.96
2023-04-08T09:22:59.676Z,100985.73
2023-04-08T09:25:32.824Z,100984.55
2023-04-08T09:28:03.176Z,100979.71
2023-04-08T09:30:32.551Z,100976.43
2023-04-08T09:33:07.626Z,100980.11
2023-04-08T09:35:36.774Z,100978.64
2023-04-08T09:38:05.332Z,100975.73
2023-04-08T09:40:39.007Z,100971.83
2023-04-08T09:43:07.689Z,100969.85
2023-04-08T09:45:36.304Z,100971.64
2023-04-08T09:48:19.115Z,100968.45
2023-04-08T09:50:50.876Z,100970.79
2023-04-08T09:53:34.904Z,100969.69
2023-04-08T09:56:03.375Z,100971.77
2023-04-08T09:58:57.566Z,100972.51
2023-04-08T10:01:29.036Z,100971.70
2023-04-08T10:03:57.746Z,100973.17
2023-04-08T10:06:28.883Z,100973.52
2023-04-08T10:08:57.124Z,100967.77
2023-04-08T10:11:25.493Z,100966.61
2023-04-08T10:13:56.909Z,100968.73
2023-04-08T10:16:27.776Z,100967.14
2023-04-08T10:18:56.995Z,100967.17
2023-04-08T10:21:32.986Z,100961.07
2023-04-08T10:24:06.256Z,100959.70
2023-04-08T10:26:39.320Z,100952.67
2023-04-08T10:29:21.638Z,100958.18
2023-04-08T10:31:53.404Z,100958.61
2023-04-08T10:34:24.805Z,100954.25
2023-04-08T10:36:53.616Z,100955.93
2023-04-08T10:39:27.628Z,100956.75
2023-04-08T10:41:56.737Z,100953.36
2023-04-08T10:44:25.537Z,100957.05
2023-04-08T10:46:54.299Z,100948.27
2023-04-08T10:49:22.929Z,100944.78
2023-04-08T10:51:56.893Z,100942.17
2023-04-08T10:54:25.370Z,100943.52
2023-04-08T10:56:54.975Z,100942.77
2023-04-08T10:59:29.642Z,100942.27
2023-04-08T11:01:58.722Z,100940.52
2023-04-08T11:04:27.591Z,100940.78
2023-04-08T11:06:56.658Z,100946.54
2023-04-08T11:09:25.189Z,100944.20
2023-04-08T11:11:53.874Z,100939.88
2023-04-08T11:14:24.073Z,100944.10
2023-04-08T11:16:52.661Z,100943.64
2023-04-08T11:19:21.676Z,100947.83
2023-04-08T11:21:51.510Z,100945.23
2023-04-08T11:24:19.907Z,100947.23
2023-04-08T11:26:48.221Z,100940.70
2023-04-08T11:29:17.112Z,100936.84
2023-04-08T11:31:45.498Z,100934.06
2023-04-08T11:34:13.762Z,100933.21
2023-04-08T11:36:42.672Z,100933.44
2023-04-08T11:39:12.324Z,100935.27
2023-04-08T11:41:41.696Z,100941.02
2023-04-08T11:44:10.342Z,100945.54
2023-04-08T11:46:41.160Z,100942.93
2023-04-08T11:49:10.592Z,100946.55
2023-04-08T11:51:55.229Z,100946.80
2023-04-08T11:54:30.386Z,100941.90
2023-04-08T11:56:59.273Z,100938.76
2023-04-08T11:59:29.490Z,100938.61
2023-04-08T12:01:59.420Z,100940.81
2023-04-08T12:04:28.305Z,100937.67
2023-04-08T12:06:58.305Z,100938.99
2023-04-08T12:09:28.634Z,100937.11
2023-04-08T12:11:58.288Z,100945.70
2023-04-08T12:14:28.422Z,100946.85
2023-04-08T12:16:57.254Z,100967.96
2023-04-08T12:19:34.477Z,100960.23
2023-04-08T12:22:04.352Z,100955.48
2023-04-08T12:24:32.839Z,100952.81
2023-04-08T12:27:02.856Z,100947.70
2023-04-08T12:29:32.764Z,100948.05
2023-04-08T12:32:03.194Z,100944.77
2023-04-08T12:34:32.965Z,100941.29
2023-04-08T12:37:01.284Z,100937.96
2023-04-08T12:39:33.575Z,100934.42
2023-04-08T12:42:02.153Z,100938.17
2023-04-08T12:44:31.130Z,100933.77
2023-04-08T12:46:59.836Z,100934.82
2023-04-08T12:49:28.309Z,100933.77
2023-04-08T12:51:56.797Z,100929.86
2023-04-08T12:54:26.076Z,100931.27
2023-04-08T12:56:54.268Z,100928.38
2023-04-08T12:59:23.658Z,100929.20
2023-04-08T13:01:52.077Z,100929.85
2023-04-08T13:04:20.722Z,100930.50
2023-04-08T13:06:49.222Z,100935.80
2023-04-08T13:09:18.717Z,100934.54
2023-04-08T13:11:47.598Z,100933.41
2023-04-08T13:14:18.555Z,100930.84
2023-04-08T13:16:47.172Z,100932.55
2023-04-08T13:19:16.727Z,100931.38
2023-04-08T13:21:46.242Z,100929.30
2023-04-08T13:24:14.725Z,100929.75
2023-04-08T13:26:43.704Z,100931.66
2023-04-08T13:29:14.436Z,100930.90
2023-04-08T13:31:45.839Z,100928.91
2023-04-08T13:34:14.282Z,100928.87
2023-04-08T13:36:42.850Z,100923.52
2023-04-08T13:39:11.839Z,100923.14
2023-04-08T13:41:40.728Z,100924.55
2023-04-08T13:44:09.414Z,100925.76
2023-04-08T13:46:37.690Z,100926.79
2023-04-08T13:49:06.519Z,100928.74
2023-04-08T13:51:35.672Z,100926.20
2023-04-08T13:54:08.863Z,100929.84
2023-04-08T13:56:38.368Z,100927.98
2023-04-08T13:59:07.539Z,100934.46
2023-04-08T14:01:36.541Z,100931.21
2023-04-08T14:04:05.579Z,100922.79
2023-04-08T14:06:35.161Z,100924.16
2023-04-08T14:09:04.316Z,100920.58
2023-04-08T14:11:33.179Z,100922.16
2023-04-08T14:14:01.331Z,100920.20
2023-04-08T14:16:32.068Z,100920.72
2023-04-08T14:19:00.851Z,100922.67
2023-04-08T14:21:29.219Z,100922.86
2023-04-08T14:23:58.004Z,100923.42
2023-04-08T14:26:26.792Z,100927.88
2023-04-08T14:29:01.730Z,100923.48
2023-04-08T14:31:30.026Z,100926.55
2023-04-08T14:33:59.092Z,100926.23
2023-04-08T14:36:28.320Z,100929.11
2023-04-08T14:38:56.898Z,100924.88
2023-04-08T14:41:27.414Z,100923.32
2023-04-08T14:43:55.887Z,100927.97
2023-04-08T14:46:28.571Z,100925.15
2023-04-08T14:48:59.310Z,100929.27
2023-04-08T14:51:27.784Z,100928.23
2023-04-08T14:53:57.797Z,100927.02
2023-04-08T14:56:26.732Z,100932.20
2023-04-08T14:58:56.304Z,100938.45
2023-04-08T15:01:25.012Z,100934.58
2023-04-08T15:03:53.888Z,100941.19
2023-04-08T15:06:23.384Z,100944.06
2023-04-08T15:08:53.950Z,100943.92
2023-04-08T15:11:22.489Z,100941.48
2023-04-08T15:13:59.568Z,100936.16
2023-04-08T15:16:28.386Z,100936.38
2023-04-08T15:18:59.934Z,100933.59
2023-04-08T15:21:28.945Z,100936.46
2023-04-08T15:23:57.626Z,100932.25
2023-04-08T15:26:27.751Z,100924.13
2023-04-08T15:28:59.179Z,100924.91
2023-04-08T15:31:27.973Z,100922.67
2023-04-08T15:33:56.730Z,100926.11
2023-04-08T15:36:25.646Z,100927.94
2023-04-08T15:38:55.455Z,100926.75
2023-04-08T15:41:26.485Z,100928.58
2023-04-08T15:43:54.756Z,100931.28
2023-04-08T15:46:26.676Z,100935.05
2023-04-08T15:48:55.611Z,100940.42
2023-04-08T15:51:23.981Z,100936.55
2023-04-08T15:53:53.077Z,100940.30
2023-04-08T15:56:24.383Z,100937.71
2023-04-08T15:58:53.319Z,100937.07
2023-04-08T16:01:24.996Z,100938.55
2023-04-08T16:03:58.008Z,100934.17
2023-04-08T16:06:26.885Z,100940.25
2023-04-08T16:08:55.755Z,100939.94
2023-04-08T16:11:25.451Z,100939.63
2023-04-08T16:13:54.040Z,100942.86
2023-04-08T16:16:22.753Z,100945.37
2023-04-08T16:18:52.963Z,100947.89
2023-04-08T16:21:21.622Z,100945.60
2023-04-08T16:23:50.807Z,100944.75
2023-04-08T16:26:21.973Z,100950.44
2023-04-08T16:28:51.213Z,100952.95
2023-04-08T16:31:20.173Z,100955.45
2023-04-08T16:33:49.952Z,100963.80
2023-04-08T16:36:19.411Z,100962.92
2023-04-08T16:38:48.478Z,100966.84
2023-04-08T16:41:16.906Z,100969.52
2023-04-08T16:43:45.543Z,100968.10
2023-04-08T16:46:17.699Z,100973.79
2023-04-08T16:48:46.790Z,100980.02
2023-04-08T16:51:15.274Z,100989.61
2023-04-08T16:53:43.761Z,100991.56
2023-04-08T16:56:16.540Z,100993.90
2023-04-08T16:58:45.838Z,101000.47
2023-04-08T17:01:21.346Z,101009.00
2023-04-08T17:03:52.502Z,101009.91
2023-04-08T17:06:21.130Z,101018.09
2023-04-08T17:08:54.836Z,101025.02
2023-04-08T17:11:23.935Z,101028.75
2023-04-08T17:13:52.989Z,101031.41
2023-04-08T17:16:23.256Z,101036.89
2023-04-08T17:18:52.504Z,101037.96
2023-04-08T17:21:21.008Z,101040.27
2023-04-08T17:23:52.325Z,101044.02
2023-04-08T17:26:25.034Z,101048.45
2023-04-08T17:28:53.833Z,101050.95
2023-04-08T17:31:22.906Z,101055.75
2023-04-08T17:33:51.699Z,101058.95
2023-04-08T17:36:20.412Z,101069.42
2023-04-08T17:38:50.104Z,101072.77
2023-04-08T17:41:38.320Z,101076.50
2023-04-08T17:44:12.154Z,101078.46
2023-04-08T17:46:42.067Z,101085.02
2023-04-08T17:49:14.560Z,101094.42
2023-04-08T17:51:43.127Z,101097.79
2023-04-08T17:54:11.914Z,101103.63
2023-04-08T17:56:46.190Z,101110.00
2023-04-08T17:59:17.069Z,101113.55
2023-04-08T18:01:47.024Z,101114.79
2023-04-08T18:04:18.996Z,101124.19
2023-04-08T18:06:48.038Z,101127.92
2023-04-08T18:09:19.590Z,101139.09
2023-04-08T18:11:49.506Z,101143.18
2023-04-08T18:14:18.396Z,101145.84
2023-04-08T18:16:53.858Z,101147.98
2023-04-08T18:19:25.100Z,101139.48
2023-04-08T18:21:53.797Z,101138.77
2023-04-08T18:24:22.396Z,101133.46
2023-04-08T18:27:01.465Z,101132.77
2023-04-08T18:29:33.462Z,101132.77
2023-04-08T18:32:02.349Z,101135.05
2023-04-08T18:34:32.354Z,101130.98
2023-04-08T18:37:04.660Z,101140.20
2023-04-08T18:39:33.203Z,101138.77
2023-04-08T18:42:03.224Z,101132.92
2023-04-08T18:44:31.984Z,101137.86
2023-04-08T18:47:02.951Z,101141.74
2023-04-08T18:49:33.927Z,101138.55
2023-04-08T18:52:03.508Z,101137.30
2023-04-08T18:54:32.913Z,101139.59
2023-04-08T18:57:03.178Z,101148.96
2023-04-08T18:59:33.081Z,101154.27
2023-04-08T19:02:02.766Z,101154.27
2023-04-08T19:04:33.738Z,101148.97
2023-04-08T19:07:02.611Z,101142.05
2023-04-08T19:09:31.284Z,101139.04
2023-04-08T19:12:00.877Z,101137.98
2023-04-08T19:14:29.962Z,101137.27
2023-04-08T19:17:03.104Z,101138.14
2023-04-08T19:19:33.239Z,101138.44
2023-04-08T19:22:03.223Z,101138.60
2023-04-08T19:24:34.054Z,101136.47
2023-04-08T19:27:02.441Z,101134.17
2023-04-08T19:29:33.649Z,101129.77
2023-04-08T19:32:05.355Z,101123.76
2023-04-08T19:34:38.738Z,101119.33
2023-04-08T19:37:08.817Z,101117.71
2023-04-08T19:39:38.313Z,101115.90
2023-04-08T19:42:12.604Z,101112.52
2023-04-08T19:44:41.217Z,101117.63
2023-04-08T19:47:10.016Z,101119.70
2023-04-08T19:49:40.651Z,101114.21
2023-04-08T19:52:09.421Z,101111.89
2023-04-08T19:54:41.848Z,101107.98
2023-04-08T19:57:11.060Z,101102.86
2023-04-08T19:59:39.572Z,101101.13
2023-04-08T20:02:08.350Z,101099.75
2023-04-08T20:04:39.029Z,101093.06
2023-04-08T20:07:07.490Z,101096.61
2023-04-08T20:09:38.821Z,101088.33
2023-04-08T20:12:07.624Z,101091.33
2023-04-08T20:14:42.241Z,101090.23
2023-04-08T20:17:10.619Z,101085.26
2023-04-08T20:19:42.343Z,101085.25
2023-04-08T20:22:11.470Z,101079.59
2023-04-08T20:24:39.761Z,101080.61
2023-04-08T20:27:11.533Z,101074.73
2023-04-08T20:29:42.240Z,101077.02
2023-04-08T20:32:11.037Z,101080.34
2023-04-08T20:34:39.611Z,101084.39
2023-04-08T20:37:08.732Z,101083.05
2023-04-08T20:39:37.186Z,101077.44
2023-04-08T20:42:06.792Z,101081.35
2023-04-08T20:44:35.892Z,101080.64
2023-04-08T20:47:05.425Z,101077.63
2023-04-08T20:49:35.326Z,101072.66
2023-04-08T20:52:06.760Z,101071.92
2023-04-08T20:54:38.720Z,101075.61
2023-04-08T20:57:07.096Z,101073.48
2023-04-08T20:59:35.792Z,101071.35
2023-04-08T21:02:04.253Z,101070.30
2023-04-08T21:04:32.846Z,101068.36
2023-04-08T21:07:02.045Z,101069.79
2023-04-08T21:09:31.101Z,101074.73
2023-04-08T21:11:59.414Z,101076.66
2023-04-08T21:14:31.438Z,101077.89
2023-04-08T21:17:00.267Z,101077.34
2023-04-08T21:19:28.780Z,101077.16
2023-04-08T21:21:59.482Z,101074.17
2023-04-08T21:24:28.552Z,101073.99
2023-04-08T21:26:57.777Z,101075.58
2023-04-08T21:29:26.353Z,101078.20
2023-04-08T21:31:54.996Z,101077.29
2023-04-08T21:34:23.523Z,101079.39
2023-04-08T21:36:52.313Z,101077.61
2023-04-08T21:39:20.583Z,101077.61
2023-04-08T21:41:49.592Z,101077.25
2023-04-08T21:44:17.906Z,101078.13
2023-04-08T21:46:46.269Z,101078.11
2023-04-08T21:49:14.632Z,101082.16
2023-04-08T21:51:45.353Z,101080.39
2023-04-08T21:54:13.732Z,101078.27
2023-04-08T21:56:43.769Z,101074.05
2023-04-08T21:59:12.048Z,101071.21
2023-04-08T22:01:40.834Z,101076.49
2023-04-08T22:04:09.525Z,101077.54
2023-04-08T22:06:38.996Z,101080.33
2023-04-08T22:09:09.958Z,101083.86
2023-04-08T22:11:39.235Z,101085.97
2023-04-08T22:14:07.508Z,101085.42
2023-04-08T22:16:37.132Z,101086.84
2023-04-08T22:19:06.422Z,101087.70
2023-04-08T22:21:37.457Z,101090.86
2023-04-08T22:24:06.885Z,101095.44
2023-04-08T22:26:35.544Z,101098.28
2023-04-08T22:29:07.631Z,101093.54
2023-04-08T22:31:36.502Z,101093.75
2023-04-08T22:34:05.911Z,101095.70
2023-04-08T22:36:34.589Z,101096.95
2023-04-08T22:39:04.208Z,101098.36
2023-04-08T22:41:32.473Z,101101.00
2023-04-08T22:44:01.369Z,101098.01
2023-04-08T22:46:29.795Z,101103.66
2023-04-08T22:48:59.041Z,101101.73
2023-04-08T22:51:31.179Z,101104.40
2023-04-08T22:53:59.898Z,101105.65
2023-04-08T22:56:29.008Z,101107.40
2023-04-08T22:58:57.268Z,101108.63
2023-04-08T23:01:26.180Z,101108.60
2023-04-08T23:03:55.798Z,101110.52
2023-04-08T23:06:28.990Z,101108.73
2023-04-08T23:08:58.560Z,101108.02
2023-04-08T23:11:27.620Z,101113.17
2023-04-08T23:13:56.384Z,101110.88
2023-04-08T23:16:25.181Z,101112.99
2023-04-08T23:18:53.929Z,101109.62
2023-04-08T23:21:26.470Z,101111.37
2023-04-08T23:23:54.878Z,101111.18
2023-04-08T23:26:23.455Z,101112.40
2023-04-08T23:28:55.010Z,101113.98
2023-04-08T23:31:23.721Z,101114.70
2023-04-08T23:33:53.318Z,101112.80
2023-04-08T23:36:23.279Z,101106.83
2023-04-08T23:38:52.983Z,101108.61
2023-04-08T23:41:21.814Z,101112.50
2023-04-08T23:43:54.291Z,101108.59
2023-04-08T23:46:23.222Z,101108.76
2023-04-08T23:48:57.505Z,101108.21
2023-04-08T23:51:27.005Z,101110.67
2023-04-08T23:53:55.297Z,101112.10
2023-04-08T23:56:25.196Z,101115.67
2023-04-08T23:58:53.712Z,101116.38
